sensor_id;sensor_type;location;lat;lon;timestamp;P1;durP1;ratioP1;P2;durP2;ratioP2
62848;SDS011;48941;49.516;8.286;2023-05-23T00:00:29;52.65;;;32.38;;
62848;SDS011;48941;49.516;8.286;2023-05-23T00:02:58;47.80;;;31.83;;
62848;SDS011;48941;49.516;8.286;2023-05-23T00:05:27;53.47;;;33.92;;
62848;SDS011;48941;49.516;8.286;2023-05-23T00:07:55;50.08;;;32.35;;
62848;SDS011;48941;49.516;8.286;2023-05-23T00:10:23;51.08;;;31.08;;
62848;SDS011;48941;49.516;8.286;2023-05-23T00:12:52;46.90;;;30.77;;
62848;SDS011;48941;49.516;8.286;2023-05-23T00:15:20;47.88;;;31.42;;
62848;SDS011;48941;49.516;8.286;2023-05-23T00:17:48;48.70;;;29.67;;
62848;SDS011;48941;49.516;8.286;2023-05-23T00:20:16;44.22;;;29.80;;
62848;SDS011;48941;49.516;8.286;2023-05-23T00:22:44;44.58;;;29.33;;
62848;SDS011;48941;49.516;8.286;2023-05-23T00:25:13;45.03;;;30.33;;
62848;SDS011;48941;49.516;8.286;2023-05-23T00:27:41;42.42;;;28.38;;
62848;SDS011;48941;49.516;8.286;2023-05-23T00:30:11;45.67;;;29.65;;
62848;SDS011;48941;49.516;8.286;2023-05-23T00:32:39;46.88;;;29.23;;
62848;SDS011;48941;49.516;8.286;2023-05-23T00:35:07;41.63;;;28.85;;
62848;SDS011;48941;49.516;8.286;2023-05-23T00:37:35;44.00;;;28.77;;
62848;SDS011;48941;49.516;8.286;2023-05-23T00:40:03;45.65;;;27.90;;
62848;SDS011;48941;49.516;8.286;2023-05-23T00:42:33;40.80;;;28.33;;
62848;SDS011;48941;49.516;8.286;2023-05-23T00:45:01;38.05;;;27.58;;
62848;SDS011;48941;49.516;8.286;2023-05-23T00:47:30;39.63;;;26.02;;
62848;SDS011;48941;49.516;8.286;2023-05-23T00:49:58;42.70;;;27.77;;
62848;SDS011;48941;49.516;8.286;2023-05-23T00:52:26;41.03;;;26.45;;
62848;SDS011;48941;49.516;8.286;2023-05-23T00:54:54;40.58;;;27.15;;
62848;SDS011;48941;49.516;8.286;2023-05-23T00:57:22;40.35;;;25.48;;
62848;SDS011;48941;49.516;8.286;2023-05-23T00:59:50;35.70;;;24.30;;
62848;SDS011;48941;49.516;8.286;2023-05-23T01:02:19;43.05;;;26.50;;
62848;SDS011;48941;49.516;8.286;2023-05-23T01:04:49;33.75;;;25.00;;
62848;SDS011;48941;49.516;8.286;2023-05-23T01:07:19;32.90;;;24.75;;
62848;SDS011;48941;49.516;8.286;2023-05-23T01:09:48;39.35;;;25.98;;
62848;SDS011;48941;49.516;8.286;2023-05-23T01:12:18;40.53;;;26.00;;
62848;SDS011;48941;49.516;8.286;2023-05-23T01:14:53;38.38;;;26.23;;
62848;SDS011;48941;49.516;8.286;2023-05-23T01:17:31;37.58;;;27.13;;
62848;SDS011;48941;49.516;8.286;2023-05-23T01:20:10;39.53;;;26.45;;
62848;SDS011;48941;49.516;8.286;2023-05-23T01:22:48;39.97;;;28.38;;
62848;SDS011;48941;49.516;8.286;2023-05-23T01:25:47;40.33;;;28.23;;
62848;SDS011;48941;49.516;8.286;2023-05-23T01:28:32;37.60;;;27.70;;
62848;SDS011;48941;49.516;8.286;2023-05-23T01:31:04;43.28;;;28.45;;
62848;SDS011;48941;49.516;8.286;2023-05-23T01:33:34;42.03;;;27.58;;
62848;SDS011;48941;49.516;8.286;2023-05-23T01:36:04;38.53;;;27.77;;
62848;SDS011;48941;49.516;8.286;2023-05-23T01:38:34;38.75;;;28.05;;
62848;SDS011;48941;49.516;8.286;2023-05-23T01:41:02;38.25;;;29.08;;
62848;SDS011;48941;49.516;8.286;2023-05-23T01:43:29;41.17;;;29.85;;
62848;SDS011;48941;49.516;8.286;2023-05-23T01:45:59;44.63;;;30.20;;
62848;SDS011;48941;49.516;8.286;2023-05-23T01:48:28;39.22;;;28.20;;
62848;SDS011;48941;49.516;8.286;2023-05-23T01:50:56;44.20;;;29.25;;
62848;SDS011;48941;49.516;8.286;2023-05-23T01:53:25;40.47;;;30.10;;
62848;SDS011;48941;49.516;8.286;2023-05-23T01:55:54;42.38;;;29.88;;
62848;SDS011;48941;49.516;8.286;2023-05-23T01:58:22;46.33;;;29.65;;
62848;SDS011;48941;49.516;8.286;2023-05-23T02:00:51;40.47;;;29.80;;
62848;SDS011;48941;49.516;8.286;2023-05-23T02:03:19;42.42;;;29.00;;
62848;SDS011;48941;49.516;8.286;2023-05-23T02:05:47;41.38;;;29.17;;
62848;SDS011;48941;49.516;8.286;2023-05-23T02:08:15;43.58;;;30.92;;
62848;SDS011;48941;49.516;8.286;2023-05-23T02:10:43;42.15;;;30.52;;
62848;SDS011;48941;49.516;8.286;2023-05-23T02:13:11;39.88;;;29.05;;
62848;SDS011;48941;49.516;8.286;2023-05-23T02:15:39;41.40;;;29.50;;
62848;SDS011;48941;49.516;8.286;2023-05-23T02:18:08;41.72;;;29.17;;
62848;SDS011;48941;49.516;8.286;2023-05-23T02:20:36;43.10;;;28.88;;
62848;SDS011;48941;49.516;8.286;2023-05-23T02:23:04;38.13;;;28.25;;
62848;SDS011;48941;49.516;8.286;2023-05-23T02:25:32;43.17;;;28.15;;
62848;SDS011;48941;49.516;8.286;2023-05-23T02:28:00;42.15;;;27.90;;
62848;SDS011;48941;49.516;8.286;2023-05-23T02:30:28;35.83;;;26.27;;
62848;SDS011;48941;49.516;8.286;2023-05-23T02:32:56;36.28;;;27.80;;
62848;SDS011;48941;49.516;8.286;2023-05-23T02:35:25;38.13;;;27.42;;
62848;SDS011;48941;49.516;8.286;2023-05-23T02:37:53;37.67;;;27.45;;
62848;SDS011;48941;49.516;8.286;2023-05-23T02:40:21;38.30;;;27.50;;
62848;SDS011;48941;49.516;8.286;2023-05-23T02:42:48;39.95;;;27.58;;
62848;SDS011;48941;49.516;8.286;2023-05-23T02:45:16;39.08;;;28.00;;
62848;SDS011;48941;49.516;8.286;2023-05-23T02:47:44;37.90;;;27.13;;
62848;SDS011;48941;49.516;8.286;2023-05-23T02:50:12;36.70;;;26.27;;
62848;SDS011;48941;49.516;8.286;2023-05-23T02:52:42;35.40;;;25.70;;
62848;SDS011;48941;49.516;8.286;2023-05-23T02:55:10;40.95;;;26.30;;
62848;SDS011;48941;49.516;8.286;2023-05-23T02:57:38;33.35;;;25.35;;
62848;SDS011;48941;49.516;8.286;2023-05-23T03:00:07;36.42;;;25.75;;
62848;SDS011;48941;49.516;8.286;2023-05-23T03:02:37;33.63;;;25.65;;
62848;SDS011;48941;49.516;8.286;2023-05-23T03:05:05;32.72;;;23.17;;
62848;SDS011;48941;49.516;8.286;2023-05-23T03:07:34;34.47;;;24.73;;
62848;SDS011;48941;49.516;8.286;2023-05-23T03:10:04;37.38;;;25.90;;
62848;SDS011;48941;49.516;8.286;2023-05-23T03:12:32;32.60;;;24.35;;
62848;SDS011;48941;49.516;8.286;2023-05-23T03:15:00;32.95;;;24.75;;
62848;SDS011;48941;49.516;8.286;2023-05-23T03:17:28;35.85;;;25.20;;
62848;SDS011;48941;49.516;8.286;2023-05-23T03:19:56;29.20;;;24.13;;
62848;SDS011;48941;49.516;8.286;2023-05-23T03:22:24;36.35;;;24.77;;
62848;SDS011;48941;49.516;8.286;2023-05-23T03:24:51;31.80;;;24.20;;
62848;SDS011;48941;49.516;8.286;2023-05-23T03:27:20;33.53;;;24.50;;
62848;SDS011;48941;49.516;8.286;2023-05-23T03:29:48;34.05;;;24.38;;
62848;SDS011;48941;49.516;8.286;2023-05-23T03:32:16;33.03;;;23.00;;
62848;SDS011;48941;49.516;8.286;2023-05-23T03:34:44;35.80;;;25.08;;
62848;SDS011;48941;49.516;8.286;2023-05-23T03:37:12;33.65;;;24.70;;
62848;SDS011;48941;49.516;8.286;2023-05-23T03:39:39;31.83;;;24.65;;
62848;SDS011;48941;49.516;8.286;2023-05-23T03:42:07;33.45;;;23.98;;
62848;SDS011;48941;49.516;8.286;2023-05-23T03:44:36;31.30;;;23.48;;
62848;SDS011;48941;49.516;8.286;2023-05-23T03:47:04;31.90;;;23.52;;
62848;SDS011;48941;49.516;8.286;2023-05-23T03:49:32;34.25;;;24.15;;
62848;SDS011;48941;49.516;8.286;2023-05-23T03:52:00;32.67;;;24.55;;
62848;SDS011;48941;49.516;8.286;2023-05-23T03:54:28;37.58;;;25.13;;
62848;SDS011;48941;49.516;8.286;2023-05-23T03:56:56;32.38;;;23.60;;
62848;SDS011;48941;49.516;8.286;2023-05-23T03:59:24;32.30;;;23.42;;
62848;SDS011;48941;49.516;8.286;2023-05-23T04:01:53;33.88;;;24.58;;
62848;SDS011;48941;49.516;8.286;2023-05-23T04:04:24;39.78;;;25.63;;
62848;SDS011;48941;49.516;8.286;2023-05-23T04:06:52;31.52;;;24.77;;
62848;SDS011;48941;49.516;8.286;2023-05-23T04:09:19;31.23;;;24.50;;
62848;SDS011;48941;49.516;8.286;2023-05-23T04:11:48;34.95;;;24.83;;
62848;SDS011;48941;49.516;8.286;2023-05-23T04:14:15;36.30;;;24.83;;
62848;SDS011;48941;49.516;8.286;2023-05-23T04:16:45;34.20;;;24.52;;
62848;SDS011;48941;49.516;8.286;2023-05-23T04:19:14;32.72;;;24.35;;
62848;SDS011;48941;49.516;8.286;2023-05-23T04:21:44;28.55;;;21.10;;
62848;SDS011;48941;49.516;8.286;2023-05-23T04:24:12;37.03;;;23.17;;
62848;SDS011;48941;49.516;8.286;2023-05-23T04:26:39;29.23;;;22.05;;
62848;SDS011;48941;49.516;8.286;2023-05-23T04:29:08;30.77;;;22.35;;
62848;SDS011;48941;49.516;8.286;2023-05-23T04:31:37;29.58;;;21.95;;
62848;SDS011;48941;49.516;8.286;2023-05-23T04:34:05;33.70;;;21.73;;
62848;SDS011;48941;49.516;8.286;2023-05-23T04:36:34;29.13;;;21.40;;
62848;SDS011;48941;49.516;8.286;2023-05-23T04:39:03;25.08;;;19.92;;
62848;SDS011;48941;49.516;8.286;2023-05-23T04:41:33;28.63;;;19.65;;
62848;SDS011;48941;49.516;8.286;2023-05-23T04:44:02;24.45;;;17.65;;
62848;SDS011;48941;49.516;8.286;2023-05-23T04:46:31;25.35;;;18.05;;
62848;SDS011;48941;49.516;8.286;2023-05-23T04:48:59;27.23;;;18.98;;
62848;SDS011;48941;49.516;8.286;2023-05-23T04:51:27;28.40;;;18.88;;
62848;SDS011;48941;49.516;8.286;2023-05-23T04:53:56;24.50;;;17.63;;
62848;SDS011;48941;49.516;8.286;2023-05-23T04:56:24;25.67;;;18.73;;
62848;SDS011;48941;49.516;8.286;2023-05-23T04:58:53;25.02;;;17.45;;
62848;SDS011;48941;49.516;8.286;2023-05-23T05:01:21;22.60;;;17.70;;
62848;SDS011;48941;49.516;8.286;2023-05-23T05:03:50;21.60;;;16.85;;
62848;SDS011;48941;49.516;8.286;2023-05-23T05:06:18;24.98;;;17.88;;
62848;SDS011;48941;49.516;8.286;2023-05-23T05:08:47;22.38;;;17.20;;
62848;SDS011;48941;49.516;8.286;2023-05-23T05:11:16;24.33;;;17.85;;
62848;SDS011;48941;49.516;8.286;2023-05-23T05:13:44;22.27;;;17.52;;
62848;SDS011;48941;49.516;8.286;2023-05-23T05:16:12;21.38;;;16.48;;
62848;SDS011;48941;49.516;8.286;2023-05-23T05:18:40;20.00;;;14.77;;
62848;SDS011;48941;49.516;8.286;2023-05-23T05:21:08;18.73;;;14.82;;
62848;SDS011;48941;49.516;8.286;2023-05-23T05:23:35;20.10;;;15.15;;
62848;SDS011;48941;49.516;8.286;2023-05-23T05:26:03;20.67;;;14.88;;
62848;SDS011;48941;49.516;8.286;2023-05-23T05:28:33;19.50;;;15.13;;
62848;SDS011;48941;49.516;8.286;2023-05-23T05:31:00;20.23;;;14.95;;
62848;SDS011;48941;49.516;8.286;2023-05-23T05:33:30;17.65;;;14.30;;
62848;SDS011;48941;49.516;8.286;2023-05-23T05:36:01;18.10;;;15.50;;
62848;SDS011;48941;49.516;8.286;2023-05-23T05:38:29;18.63;;;15.10;;
62848;SDS011;48941;49.516;8.286;2023-05-23T05:40:57;20.70;;;15.05;;
62848;SDS011;48941;49.516;8.286;2023-05-23T05:43:25;22.42;;;15.55;;
62848;SDS011;48941;49.516;8.286;2023-05-23T05:45:54;24.17;;;16.92;;
62848;SDS011;48941;49.516;8.286;2023-05-23T05:48:22;23.55;;;16.67;;
62848;SDS011;48941;49.516;8.286;2023-05-23T05:50:50;24.13;;;17.17;;
62848;SDS011;48941;49.516;8.286;2023-05-23T05:53:18;24.05;;;17.10;;
62848;SDS011;48941;49.516;8.286;2023-05-23T05:55:46;28.25;;;18.45;;
62848;SDS011;48941;49.516;8.286;2023-05-23T05:58:13;24.50;;;17.50;;
62848;SDS011;48941;49.516;8.286;2023-05-23T06:00:41;27.40;;;18.70;;
62848;SDS011;48941;49.516;8.286;2023-05-23T06:03:10;26.50;;;18.00;;
62848;SDS011;48941;49.516;8.286;2023-05-23T06:05:39;23.92;;;17.35;;
62848;SDS011;48941;49.516;8.286;2023-05-23T06:08:07;24.98;;;17.75;;
62848;SDS011;48941;49.516;8.286;2023-05-23T06:10:36;23.08;;;16.92;;
62848;SDS011;48941;49.516;8.286;2023-05-23T06:13:05;22.58;;;17.05;;
62848;SDS011;48941;49.516;8.286;2023-05-23T06:15:33;20.98;;;16.35;;
62848;SDS011;48941;49.516;8.286;2023-05-23T06:18:00;21.42;;;16.80;;
62848;SDS011;48941;49.516;8.286;2023-05-23T06:20:33;22.67;;;15.73;;
62848;SDS011;48941;49.516;8.286;2023-05-23T06:23:01;22.23;;;14.98;;
62848;SDS011;48941;49.516;8.286;2023-05-23T06:25:31;20.40;;;14.82;;
62848;SDS011;48941;49.516;8.286;2023-05-23T06:27:58;19.70;;;14.18;;
62848;SDS011;48941;49.516;8.286;2023-05-23T06:30:26;19.38;;;13.57;;
62848;SDS011;48941;49.516;8.286;2023-05-23T06:32:55;17.42;;;12.68;;
62848;SDS011;48941;49.516;8.286;2023-05-23T06:35:23;16.02;;;11.57;;
62848;SDS011;48941;49.516;8.286;2023-05-23T06:37:52;14.50;;;11.32;;
62848;SDS011;48941;49.516;8.286;2023-05-23T06:40:20;13.25;;;10.15;;
62848;SDS011;48941;49.516;8.286;2023-05-23T06:42:48;15.40;;;11.20;;
62848;SDS011;48941;49.516;8.286;2023-05-23T06:45:16;15.23;;;11.52;;
62848;SDS011;48941;49.516;8.286;2023-05-23T06:47:44;15.65;;;11.73;;
62848;SDS011;48941;49.516;8.286;2023-05-23T06:50:13;18.02;;;11.85;;
62848;SDS011;48941;49.516;8.286;2023-05-23T06:52:44;12.70;;;10.48;;
62848;SDS011;48941;49.516;8.286;2023-05-23T06:55:14;14.65;;;10.45;;
62848;SDS011;48941;49.516;8.286;2023-05-23T06:57:44;13.87;;;10.50;;
62848;SDS011;48941;49.516;8.286;2023-05-23T07:00:13;14.35;;;10.30;;
62848;SDS011;48941;49.516;8.286;2023-05-23T07:02:41;12.80;;;10.32;;
62848;SDS011;48941;49.516;8.286;2023-05-23T07:05:10;13.73;;;9.70;;
62848;SDS011;48941;49.516;8.286;2023-05-23T07:07:38;12.10;;;9.93;;
62848;SDS011;48941;49.516;8.286;2023-05-23T07:10:07;12.10;;;9.75;;
62848;SDS011;48941;49.516;8.286;2023-05-23T07:12:37;11.32;;;8.80;;
62848;SDS011;48941;49.516;8.286;2023-05-23T07:15:05;11.48;;;8.63;;
62848;SDS011;48941;49.516;8.286;2023-05-23T07:17:33;9.77;;;7.90;;
62848;SDS011;48941;49.516;8.286;2023-05-23T07:20:02;10.75;;;7.38;;
62848;SDS011;48941;49.516;8.286;2023-05-23T07:22:31;11.73;;;8.20;;
62848;SDS011;48941;49.516;8.286;2023-05-23T07:24:58;10.85;;;7.88;;
62848;SDS011;48941;49.516;8.286;2023-05-23T07:27:26;11.60;;;8.30;;
62848;SDS011;48941;49.516;8.286;2023-05-23T07:29:56;10.90;;;8.73;;
62848;SDS011;48941;49.516;8.286;2023-05-23T07:32:24;9.60;;;8.18;;
62848;SDS011;48941;49.516;8.286;2023-05-23T07:34:52;10.35;;;8.25;;
62848;SDS011;48941;49.516;8.286;2023-05-23T07:37:20;9.88;;;7.95;;
62848;SDS011;48941;49.516;8.286;2023-05-23T07:39:47;10.73;;;7.35;;
62848;SDS011;48941;49.516;8.286;2023-05-23T07:42:15;9.07;;;7.53;;
62848;SDS011;48941;49.516;8.286;2023-05-23T07:44:43;10.73;;;7.65;;
62848;SDS011;48941;49.516;8.286;2023-05-23T07:47:12;9.55;;;7.22;;
62848;SDS011;48941;49.516;8.286;2023-05-23T07:49:40;9.55;;;7.28;;
62848;SDS011;48941;49.516;8.286;2023-05-23T07:52:12;7.75;;;6.95;;
62848;SDS011;48941;49.516;8.286;2023-05-23T07:54:40;7.78;;;6.97;;
62848;SDS011;48941;49.516;8.286;2023-05-23T07:57:08;9.73;;;6.68;;
62848;SDS011;48941;49.516;8.286;2023-05-23T07:59:36;8.77;;;6.25;;
62848;SDS011;48941;49.516;8.286;2023-05-23T08:02:04;6.88;;;5.65;;
62848;SDS011;48941;49.516;8.286;2023-05-23T08:04:34;7.40;;;5.70;;
62848;SDS011;48941;49.516;8.286;2023-05-23T08:07:02;10.77;;;5.50;;
62848;SDS011;48941;49.516;8.286;2023-05-23T08:09:31;7.28;;;5.18;;
62848;SDS011;48941;49.516;8.286;2023-05-23T08:11:59;5.25;;;4.68;;
62848;SDS011;48941;49.516;8.286;2023-05-23T08:14:27;6.50;;;4.68;;
62848;SDS011;48941;49.516;8.286;2023-05-23T08:17:14;7.57;;;4.78;;
62848;SDS011;48941;49.516;8.286;2023-05-23T08:19:44;5.93;;;4.70;;
62848;SDS011;48941;49.516;8.286;2023-05-23T08:22:12;7.32;;;4.50;;
62848;SDS011;48941;49.516;8.286;2023-05-23T08:24:39;4.88;;;4.15;;
62848;SDS011;48941;49.516;8.286;2023-05-23T08:27:07;5.20;;;4.30;;
62848;SDS011;48941;49.516;8.286;2023-05-23T08:29:35;5.22;;;3.92;;
62848;SDS011;48941;49.516;8.286;2023-05-23T08:32:03;5.88;;;4.20;;
62848;SDS011;48941;49.516;8.286;2023-05-23T08:34:31;10.07;;;4.00;;
62848;SDS011;48941;49.516;8.286;2023-05-23T08:37:01;3.80;;;3.42;;
62848;SDS011;48941;49.516;8.286;2023-05-23T08:39:29;4.63;;;3.70;;
62848;SDS011;48941;49.516;8.286;2023-05-23T08:41:57;4.18;;;3.60;;
62848;SDS011;48941;49.516;8.286;2023-05-23T08:44:25;4.68;;;3.30;;
62848;SDS011;48941;49.516;8.286;2023-05-23T08:46:53;3.10;;;2.80;;
62848;SDS011;48941;49.516;8.286;2023-05-23T08:49:23;3.30;;;3.00;;
62848;SDS011;48941;49.516;8.286;2023-05-23T08:51:52;3.85;;;3.40;;
62848;SDS011;48941;49.516;8.286;2023-05-23T08:54:25;3.35;;;3.05;;
62848;SDS011;48941;49.516;8.286;2023-05-23T08:56:54;5.60;;;3.30;;
62848;SDS011;48941;49.516;8.286;2023-05-23T08:59:22;3.40;;;3.10;;
62848;SDS011;48941;49.516;8.286;2023-05-23T09:01:53;4.43;;;2.95;;
62848;SDS011;48941;49.516;8.286;2023-05-23T09:04:23;3.80;;;3.17;;
62848;SDS011;48941;49.516;8.286;2023-05-23T09:06:51;3.55;;;3.10;;
62848;SDS011;48941;49.516;8.286;2023-05-23T09:09:21;3.05;;;2.75;;
62848;SDS011;48941;49.516;8.286;2023-05-23T09:11:50;5.05;;;3.72;;
62848;SDS011;48941;49.516;8.286;2023-05-23T09:14:19;3.45;;;3.15;;
62848;SDS011;48941;49.516;8.286;2023-05-23T09:16:47;6.28;;;2.97;;
62848;SDS011;48941;49.516;8.286;2023-05-23T09:19:15;3.83;;;3.22;;
62848;SDS011;48941;49.516;8.286;2023-05-23T09:21:44;4.20;;;3.60;;
62848;SDS011;48941;49.516;8.286;2023-05-23T09:24:13;4.88;;;3.50;;
62848;SDS011;48941;49.516;8.286;2023-05-23T09:26:40;4.95;;;3.60;;
62848;SDS011;48941;49.516;8.286;2023-05-23T09:29:16;15.02;;;3.90;;
62848;SDS011;48941;49.516;8.286;2023-05-23T09:31:46;4.63;;;3.70;;
62848;SDS011;48941;49.516;8.286;2023-05-23T09:34:14;5.78;;;4.88;;
62848;SDS011;48941;49.516;8.286;2023-05-23T09:36:42;5.13;;;3.72;;
62848;SDS011;48941;49.516;8.286;2023-05-23T09:39:10;5.68;;;4.07;;
62848;SDS011;48941;49.516;8.286;2023-05-23T09:41:38;5.00;;;3.83;;
62848;SDS011;48941;49.516;8.286;2023-05-23T09:44:07;4.50;;;3.97;;
62848;SDS011;48941;49.516;8.286;2023-05-23T09:46:37;4.93;;;3.88;;
62848;SDS011;48941;49.516;8.286;2023-05-23T09:49:14;4.13;;;3.63;;
62848;SDS011;48941;49.516;8.286;2023-05-23T09:51:43;5.25;;;3.95;;
62848;SDS011;48941;49.516;8.286;2023-05-23T09:54:23;4.57;;;4.10;;
62848;SDS011;48941;49.516;8.286;2023-05-23T09:56:51;4.22;;;3.83;;
62848;SDS011;48941;49.516;8.286;2023-05-23T09:59:22;4.90;;;3.88;;
62848;SDS011;48941;49.516;8.286;2023-05-23T10:01:56;4.85;;;4.32;;
62848;SDS011;48941;49.516;8.286;2023-05-23T10:04:24;8.05;;;4.70;;
62848;SDS011;48941;49.516;8.286;2023-05-23T10:06:59;7.47;;;4.53;;
62848;SDS011;48941;49.516;8.286;2023-05-23T10:09:32;4.30;;;3.90;;
62848;SDS011;48941;49.516;8.286;2023-05-23T10:15:12;5.65;;;4.30;;
62848;SDS011;48941;49.516;8.286;2023-05-23T10:17:50;5.78;;;3.78;;
62848;SDS011;48941;49.516;8.286;2023-05-23T10:20:30;4.50;;;4.10;;
62848;SDS011;48941;49.516;8.286;2023-05-23T10:22:58;6.75;;;4.05;;
62848;SDS011;48941;49.516;8.286;2023-05-23T10:25:27;5.85;;;4.38;;
62848;SDS011;48941;49.516;8.286;2023-05-23T10:27:56;5.25;;;4.50;;
62848;SDS011;48941;49.516;8.286;2023-05-23T10:30:29;9.23;;;4.20;;
62848;SDS011;48941;49.516;8.286;2023-05-23T10:32:58;4.50;;;4.10;;
62848;SDS011;48941;49.516;8.286;2023-05-23T10:35:31;5.47;;;3.90;;
62848;SDS011;48941;49.516;8.286;2023-05-23T10:38:11;6.32;;;3.92;;
62848;SDS011;48941;49.516;8.286;2023-05-23T10:40:52;5.07;;;4.40;;
62848;SDS011;48941;49.516;8.286;2023-05-23T10:43:28;5.18;;;4.30;;
62848;SDS011;48941;49.516;8.286;2023-05-23T10:46:01;7.47;;;4.47;;
62848;SDS011;48941;49.516;8.286;2023-05-23T10:48:34;5.80;;;4.40;;
62848;SDS011;48941;49.516;8.286;2023-05-23T10:51:08;5.05;;;4.32;;
62848;SDS011;48941;49.516;8.286;2023-05-23T10:53:38;5.95;;;4.75;;
62848;SDS011;48941;49.516;8.286;2023-05-23T10:56:08;6.20;;;4.57;;
62848;SDS011;48941;49.516;8.286;2023-05-23T10:58:37;6.35;;;5.20;;
62848;SDS011;48941;49.516;8.286;2023-05-23T11:01:06;5.30;;;4.80;;
62848;SDS011;48941;49.516;8.286;2023-05-23T11:03:37;5.35;;;4.63;;
62848;SDS011;48941;49.516;8.286;2023-05-23T11:06:29;5.20;;;4.70;;
62848;SDS011;48941;49.516;8.286;2023-05-23T11:09:02;6.85;;;5.43;;
62848;SDS011;48941;49.516;8.286;2023-05-23T11:14:31;6.72;;;5.68;;
62848;SDS011;48941;49.516;8.286;2023-05-23T11:17:00;6.55;;;5.55;;
62848;SDS011;48941;49.516;8.286;2023-05-23T11:22:28;8.07;;;5.68;;
62848;SDS011;48941;49.516;8.286;2023-05-23T11:24:56;7.75;;;6.00;;
62848;SDS011;48941;49.516;8.286;2023-05-23T11:27:25;8.65;;;6.40;;
62848;SDS011;48941;49.516;8.286;2023-05-23T11:29:58;8.90;;;6.78;;
62848;SDS011;48941;49.516;8.286;2023-05-23T11:32:27;10.38;;;6.43;;
62848;SDS011;48941;49.516;8.286;2023-05-23T11:35:00;8.73;;;6.70;;
62848;SDS011;48941;49.516;8.286;2023-05-23T11:37:30;10.00;;;6.82;;
62848;SDS011;48941;49.516;8.286;2023-05-23T11:39:58;9.07;;;6.45;;
62848;SDS011;48941;49.516;8.286;2023-05-23T11:42:46;9.30;;;6.47;;
62848;SDS011;48941;49.516;8.286;2023-05-23T11:45:14;7.55;;;6.18;;
62848;SDS011;48941;49.516;8.286;2023-05-23T11:47:42;7.53;;;6.20;;
62848;SDS011;48941;49.516;8.286;2023-05-23T11:50:12;10.68;;;6.20;;
62848;SDS011;48941;49.516;8.286;2023-05-23T11:52:41;8.23;;;6.22;;
62848;SDS011;48941;49.516;8.286;2023-05-23T11:55:09;9.57;;;6.05;;
62848;SDS011;48941;49.516;8.286;2023-05-23T11:57:37;14.20;;;6.35;;
62848;SDS011;48941;49.516;8.286;2023-05-23T12:00:06;11.32;;;6.00;;
62848;SDS011;48941;49.516;8.286;2023-05-23T12:02:37;7.60;;;6.05;;
62848;SDS011;48941;49.516;8.286;2023-05-23T12:05:07;8.48;;;5.60;;
62848;SDS011;48941;49.516;8.286;2023-05-23T12:07:36;8.90;;;6.38;;
62848;SDS011;48941;49.516;8.286;2023-05-23T12:10:07;10.23;;;5.63;;
62848;SDS011;48941;49.516;8.286;2023-05-23T12:12:37;8.13;;;6.60;;
62848;SDS011;48941;49.516;8.286;2023-05-23T12:15:07;8.20;;;6.20;;
62848;SDS011;48941;49.516;8.286;2023-05-23T12:17:36;7.97;;;6.32;;
62848;SDS011;48941;49.516;8.286;2023-05-23T12:20:05;8.85;;;6.13;;
62848;SDS011;48941;49.516;8.286;2023-05-23T12:22:34;7.22;;;6.15;;
62848;SDS011;48941;49.516;8.286;2023-05-23T12:25:06;8.70;;;7.20;;
62848;SDS011;48941;49.516;8.286;2023-05-23T12:27:35;10.40;;;7.28;;
62848;SDS011;48941;49.516;8.286;2023-05-23T12:30:03;7.72;;;6.80;;
62848;SDS011;48941;49.516;8.286;2023-05-23T12:32:32;10.82;;;7.32;;
62848;SDS011;48941;49.516;8.286;2023-05-23T12:35:00;9.57;;;7.72;;
62848;SDS011;48941;49.516;8.286;2023-05-23T12:37:30;9.80;;;7.75;;
62848;SDS011;48941;49.516;8.286;2023-05-23T12:40:09;7.82;;;7.03;;
62848;SDS011;48941;49.516;8.286;2023-05-23T12:42:45;9.68;;;7.60;;
62848;SDS011;48941;49.516;8.286;2023-05-23T12:45:18;10.98;;;7.53;;
62848;SDS011;48941;49.516;8.286;2023-05-23T12:47:46;11.35;;;8.02;;
62848;SDS011;48941;49.516;8.286;2023-05-23T12:50:16;10.07;;;7.78;;
62848;SDS011;48941;49.516;8.286;2023-05-23T12:52:44;12.77;;;7.18;;
62848;SDS011;48941;49.516;8.286;2023-05-23T12:55:13;8.52;;;7.28;;
62848;SDS011;48941;49.516;8.286;2023-05-23T12:57:41;12.23;;;8.05;;
62848;SDS011;48941;49.516;8.286;2023-05-23T13:00:10;10.43;;;9.27;;
62848;SDS011;48941;49.516;8.286;2023-05-23T13:02:38;12.55;;;8.90;;
62848;SDS011;48941;49.516;8.286;2023-05-23T13:05:07;9.95;;;8.18;;
62848;SDS011;48941;49.516;8.286;2023-05-23T13:07:35;11.75;;;8.15;;
62848;SDS011;48941;49.516;8.286;2023-05-23T13:10:04;12.13;;;8.23;;
62848;SDS011;48941;49.516;8.286;2023-05-23T13:12:34;9.73;;;8.18;;
62848;SDS011;48941;49.516;8.286;2023-05-23T13:15:03;12.32;;;8.07;;
62848;SDS011;48941;49.516;8.286;2023-05-23T13:17:31;9.15;;;7.90;;
62848;SDS011;48941;49.516;8.286;2023-05-23T13:20:00;9.93;;;8.10;;
62848;SDS011;48941;49.516;8.286;2023-05-23T13:22:30;11.80;;;7.75;;
62848;SDS011;48941;49.516;8.286;2023-05-23T13:24:58;10.48;;;7.05;;
62848;SDS011;48941;49.516;8.286;2023-05-23T13:27:27;10.45;;;6.63;;
62848;SDS011;48941;49.516;8.286;2023-05-23T13:29:56;8.07;;;5.63;;
62848;SDS011;48941;49.516;8.286;2023-05-23T13:32:25;10.18;;;5.90;;
62848;SDS011;48941;49.516;8.286;2023-05-23T13:34:53;11.85;;;6.53;;
62848;SDS011;48941;49.516;8.286;2023-05-23T13:37:21;6.93;;;5.45;;
62848;SDS011;48941;49.516;8.286;2023-05-23T13:39:49;8.02;;;5.20;;
62848;SDS011;48941;49.516;8.286;2023-05-23T13:42:17;6.07;;;4.88;;
62848;SDS011;48941;49.516;8.286;2023-05-23T13:44:45;6.43;;;4.72;;
62848;SDS011;48941;49.516;8.286;2023-05-23T13:47:14;7.53;;;5.30;;
62848;SDS011;48941;49.516;8.286;2023-05-23T13:49:42;10.05;;;5.50;;
62848;SDS011;48941;49.516;8.286;2023-05-23T13:52:11;7.72;;;5.45;;
62848;SDS011;48941;49.516;8.286;2023-05-23T13:54:39;8.52;;;4.97;;
62848;SDS011;48941;49.516;8.286;2023-05-23T13:57:08;8.40;;;6.07;;
62848;SDS011;48941;49.516;8.286;2023-05-23T13:59:36;8.38;;;6.78;;
62848;SDS011;48941;49.516;8.286;2023-05-23T14:02:04;11.55;;;6.65;;
62848;SDS011;48941;49.516;8.286;2023-05-23T14:04:33;11.35;;;6.95;;
62848;SDS011;48941;49.516;8.286;2023-05-23T14:07:02;8.82;;;6.60;;
62848;SDS011;48941;49.516;8.286;2023-05-23T14:09:30;11.77;;;8.07;;
62848;SDS011;48941;49.516;8.286;2023-05-23T14:11:58;8.75;;;7.85;;
62848;SDS011;48941;49.516;8.286;2023-05-23T14:14:26;10.18;;;8.23;;
62848;SDS011;48941;49.516;8.286;2023-05-23T14:16:54;11.75;;;8.90;;
62848;SDS011;48941;49.516;8.286;2023-05-23T14:19:24;10.45;;;8.73;;
62848;SDS011;48941;49.516;8.286;2023-05-23T14:21:53;13.93;;;9.65;;
62848;SDS011;48941;49.516;8.286;2023-05-23T14:24:21;14.75;;;9.18;;
62848;SDS011;48941;49.516;8.286;2023-05-23T14:26:49;12.52;;;9.07;;
62848;SDS011;48941;49.516;8.286;2023-05-23T14:29:17;12.60;;;9.13;;
62848;SDS011;48941;49.516;8.286;2023-05-23T14:31:45;14.13;;;9.10;;
62848;SDS011;48941;49.516;8.286;2023-05-23T14:34:14;12.63;;;8.65;;
62848;SDS011;48941;49.516;8.286;2023-05-23T14:36:42;20.85;;;8.90;;
62848;SDS011;48941;49.516;8.286;2023-05-23T14:39:11;11.85;;;8.90;;
62848;SDS011;48941;49.516;8.286;2023-05-23T14:41:39;10.30;;;8.43;;
62848;SDS011;48941;49.516;8.286;2023-05-23T14:44:07;16.05;;;8.82;;
62848;SDS011;48941;49.516;8.286;2023-05-23T14:46:35;18.52;;;8.43;;
62848;SDS011;48941;49.516;8.286;2023-05-23T14:49:03;11.25;;;8.30;;
62848;SDS011;48941;49.516;8.286;2023-05-23T14:51:31;11.35;;;8.10;;
62848;SDS011;48941;49.516;8.286;2023-05-23T14:54:13;10.25;;;8.00;;